sensor_id;sensor_type;location;lat;lon;timestamp;temperature;humidity
12815;DHT22;6472;52.328;13.070;2024-01-16T00:02:07;-0.10;99.90
12815;DHT22;6472;52.328;13.070;2024-01-16T00:04:36;-0.20;99.90
12815;DHT22;6472;52.328;13.070;2024-01-16T00:07:04;-0.20;99.90
12815;DHT22;6472;52.328;13.070;2024-01-16T00:09:33;0.00;99.90
12815;DHT22;6472;52.328;13.070;2024-01-16T00:12:02;0.00;99.90
12815;DHT22;6472;52.328;13.070;2024-01-16T00:14:30;0.00;99.90
12815;DHT22;6472;52.328;13.070;2024-01-16T00:16:59;-0.10;99.90
12815;DHT22;6472;52.328;13.070;2024-01-16T00:19:26;-0.20;99.90
12815;DHT22;6472;52.328;13.070;2024-01-16T00:21:55;-0.20;99.90
12815;DHT22;6472;52.328;13.070;2024-01-16T00:24:22;-0.10;99.90
12815;DHT22;6472;52.328;13.070;2024-01-16T00:26:50;-0.10;99.90
12815;DHT22;6472;52.328;13.070;2024-01-16T00:29:18;-0.10;99.90
12815;DHT22;6472;52.328;13.070;2024-01-16T00:31:46;-0.10;99.90
12815;DHT22;6472;52.328;13.070;2024-01-16T00:34:16;-0.10;99.90
12815;DHT22;6472;52.328;13.070;2024-01-16T00:36:44;-0.10;99.90
12815;DHT22;6472;52.328;13.070;2024-01-16T00:39:11;-0.10;99.90
12815;DHT22;6472;52.328;13.070;2024-01-16T00:41:40;0.00;99.90
12815;DHT22;6472;52.328;13.070;2024-01-16T00:44:08;-0.10;99.90
12815;DHT22;6472;52.328;13.070;2024-01-16T00:46:36;-0.10;99.90
12815;DHT22;6472;52.328;13.070;2024-01-16T00:49:04;-0.10;99.90
12815;DHT22;6472;52.328;13.070;2024-01-16T00:51:35;0.00;99.90
12815;DHT22;6472;52.328;13.070;2024-01-16T00:54:03;0.00;99.90
12815;DHT22;6472;52.328;13.070;2024-01-16T00:56:33;0.00;99.90
12815;DHT22;6472;52.328;13.070;2024-01-16T00:59:01;0.00;99.90
12815;DHT22;6472;52.328;13.070;2024-01-16T01:01:29;0.10;99.90
12815;DHT22;6472;52.328;13.070;2024-01-16T01:03:57;0.10;99.90
12815;DHT22;6472;52.328;13.070;2024-01-16T01:06:25;0.20;99.90
12815;DHT22;6472;52.328;13.070;2024-01-16T01:08:54;0.20;99.90
12815;DHT22;6472;52.328;13.070;2024-01-16T01:11:22;0.20;99.90
12815;DHT22;6472;52.328;13.070;2024-01-16T01:13:50;0.30;99.90
12815;DHT22;6472;52.328;13.070;2024-01-16T01:16:19;0.30;99.90
12815;DHT22;6472;52.328;13.070;2024-01-16T01:18:47;0.30;99.90
12815;DHT22;6472;52.328;13.070;2024-01-16T01:21:15;0.30;99.90
12815;DHT22;6472;52.328;13.070;2024-01-16T01:23:43;0.30;99.90
12815;DHT22;6472;52.328;13.070;2024-01-16T01:26:13;0.40;99.90
12815;DHT22;6472;52.328;13.070;2024-01-16T01:28:41;0.40;99.90
12815;DHT22;6472;52.328;13.070;2024-01-16T01:31:10;0.40;99.90
12815;DHT22;6472;52.328;13.070;2024-01-16T01:33:39;0.40;99.90
12815;DHT22;6472;52.328;13.070;2024-01-16T01:36:07;0.40;99.90
12815;DHT22;6472;52.328;13.070;2024-01-16T01:38:35;0.40;99.90
12815;DHT22;6472;52.328;13.070;2024-01-16T01:41:04;0.40;99.90
12815;DHT22;6472;52.328;13.070;2024-01-16T01:43:35;0.30;99.90
12815;DHT22;6472;52.328;13.070;2024-01-16T01:46:11;0.30;99.90
12815;DHT22;6472;52.328;13.070;2024-01-16T01:48:41;0.00;99.90
12815;DHT22;6472;52.328;13.070;2024-01-16T01:51:10;-0.30;99.90
12815;DHT22;6472;52.328;13.070;2024-01-16T01:53:39;-0.40;99.90
12815;DHT22;6472;52.328;13.070;2024-01-16T01:56:11;-0.50;99.90
12815;DHT22;6472;52.328;13.070;2024-01-16T01:58:44;-0.60;99.90
12815;DHT22;6472;52.328;13.070;2024-01-16T02:01:14;-0.80;99.90
12815;DHT22;6472;52.328;13.070;2024-01-16T02:03:43;-0.90;99.90
12815;DHT22;6472;52.328;13.070;2024-01-16T02:06:12;-1.00;99.90
12815;DHT22;6472;52.328;13.070;2024-01-16T02:08:42;-0.90;99.90
12815;DHT22;6472;52.328;13.070;2024-01-16T02:11:10;-0.90;99.90
12815;DHT22;6472;52.328;13.070;2024-01-16T02:13:38;-1.00;99.90
12815;DHT22;6472;52.328;13.070;2024-01-16T02:16:18;-1.00;99.90
12815;DHT22;6472;52.328;13.070;2024-01-16T02:18:47;-1.00;99.90
12815;DHT22;6472;52.328;13.070;2024-01-16T02:21:17;-1.10;99.90
12815;DHT22;6472;52.328;13.070;2024-01-16T02:23:48;-1.20;99.90
12815;DHT22;6472;52.328;13.070;2024-01-16T02:26:16;-1.30;99.90
12815;DHT22;6472;52.328;13.070;2024-01-16T02:28:45;-1.40;99.90
12815;DHT22;6472;52.328;13.070;2024-01-16T02:31:13;-1.40;99.90
12815;DHT22;6472;52.328;13.070;2024-01-16T02:33:40;-1.50;99.90
12815;DHT22;6472;52.328;13.070;2024-01-16T02:36:09;-1.50;99.90
12815;DHT22;6472;52.328;13.070;2024-01-16T02:38:37;-1.50;99.90
12815;DHT22;6472;52.328;13.070;2024-01-16T02:41:07;-1.60;99.90
12815;DHT22;6472;52.328;13.070;2024-01-16T02:43:35;-1.60;99.90
12815;DHT22;6472;52.328;13.070;2024-01-16T02:46:03;-1.50;99.90
12815;DHT22;6472;52.328;13.070;2024-01-16T02:48:31;-1.40;99.90
12815;DHT22;6472;52.328;13.070;2024-01-16T02:50:59;-1.40;99.90
12815;DHT22;6472;52.328;13.070;2024-01-16T02:53:27;-1.50;99.90
12815;DHT22;6472;52.328;13.070;2024-01-16T02:55:55;-1.60;99.90
12815;DHT22;6472;52.328;13.070;2024-01-16T02:58:26;-1.60;99.90
12815;DHT22;6472;52.328;13.070;2024-01-16T03:00:55;-1.70;99.90
12815;DHT22;6472;52.328;13.070;2024-01-16T03:03:23;-1.70;99.90
12815;DHT22;6472;52.328;13.070;2024-01-16T03:05:51;-1.70;99.90
12815;DHT22;6472;52.328;13.070;2024-01-16T03:08:20;-1.70;99.90
12815;DHT22;6472;52.328;13.070;2024-01-16T03:10:48;-1.80;99.90
12815;DHT22;6472;52.328;13.070;2024-01-16T03:13:16;-1.70;99.90
12815;DHT22;6472;52.328;13.070;2024-01-16T03:15:45;-1.60;99.90
12815;DHT22;6472;52.328;13.070;2024-01-16T03:18:13;-1.50;99.90
12815;DHT22;6472;52.328;13.070;2024-01-16T03:20:42;-1.50;99.90
12815;DHT22;6472;52.328;13.070;2024-01-16T03:23:10;-1.50;99.90
12815;DHT22;6472;52.328;13.070;2024-01-16T03:25:38;-1.40;99.90
12815;DHT22;6472;52.328;13.070;2024-01-16T03:28:06;-1.30;99.90
12815;DHT22;6472;52.328;13.070;2024-01-16T03:30:35;-1.40;99.90
12815;DHT22;6472;52.328;13.070;2024-01-16T03:33:04;-1.50;99.90
12815;DHT22;6472;52.328;13.070;2024-01-16T03:35:33;-1.60;99.90
12815;DHT22;6472;52.328;13.070;2024-01-16T03:38:01;-1.60;99.90
12815;DHT22;6472;52.328;13.070;2024-01-16T03:40:29;-1.60;99.90
12815;DHT22;6472;52.328;13.070;2024-01-16T03:43:00;-1.50;99.90
12815;DHT22;6472;52.328;13.070;2024-01-16T03:45:28;-1.60;99.90
12815;DHT22;6472;52.328;13.070;2024-01-16T03:47:56;-1.60;99.90
12815;DHT22;6472;52.328;13.070;2024-01-16T03:50:26;-1.60;99.90
12815;DHT22;6472;52.328;13.070;2024-01-16T03:52:54;-1.60;99.90
12815;DHT22;6472;52.328;13.070;2024-01-16T03:55:22;-1.60;99.90
12815;DHT22;6472;52.328;13.070;2024-01-16T03:57:50;-1.60;99.90
12815;DHT22;6472;52.328;13.070;2024-01-16T04:00:18;-1.60;99.90
12815;DHT22;6472;52.328;13.070;2024-01-16T04:02:46;-1.60;99.90
12815;DHT22;6472;52.328;13.070;2024-01-16T04:05:15;-1.70;99.90
12815;DHT22;6472;52.328;13.070;2024-01-16T04:07:44;-1.70;99.90
12815;DHT22;6472;52.328;13.070;2024-01-16T04:10:12;-1.80;99.90
12815;DHT22;6472;52.328;13.070;2024-01-16T04:12:40;-1.80;99.90
12815;DHT22;6472;52.328;13.070;2024-01-16T04:15:09;-1.90;99.90
12815;DHT22;6472;52.328;13.070;2024-01-16T04:17:36;-2.00;99.90
12815;DHT22;6472;52.328;13.070;2024-01-16T04:20:06;-2.10;99.90
12815;DHT22;6472;52.328;13.070;2024-01-16T04:22:34;-2.10;99.90
12815;DHT22;6472;52.328;13.070;2024-01-16T04:25:04;-2.10;99.90
12815;DHT22;6472;52.328;13.070;2024-01-16T04:27:32;-2.20;99.90
12815;DHT22;6472;52.328;13.070;2024-01-16T04:30:00;-2.10;99.90
12815;DHT22;6472;52.328;13.070;2024-01-16T04:32:29;-2.20;99.90
12815;DHT22;6472;52.328;13.070;2024-01-16T04:34:57;-2.30;99.90
12815;DHT22;6472;52.328;13.070;2024-01-16T04:37:25;-2.40;99.90
12815;DHT22;6472;52.328;13.070;2024-01-16T04:39:53;-2.30;99.90
12815;DHT22;6472;52.328;13.070;2024-01-16T04:42:22;-2.40;99.90
12815;DHT22;6472;52.328;13.070;2024-01-16T04:44:50;-2.50;99.90
12815;DHT22;6472;52.328;13.070;2024-01-16T04:47:18;-2.50;99.90
12815;DHT22;6472;52.328;13.070;2024-01-16T04:49:46;-2.50;99.90
12815;DHT22;6472;52.328;13.070;2024-01-16T04:52:14;-2.60;99.90
12815;DHT22;6472;52.328;13.070;2024-01-16T04:54:42;-2.60;99.90
12815;DHT22;6472;52.328;13.070;2024-01-16T04:57:12;-2.70;99.90
12815;DHT22;6472;52.328;13.070;2024-01-16T04:59:41;-2.70;99.90
12815;DHT22;6472;52.328;13.070;2024-01-16T05:02:10;-2.70;99.90
12815;DHT22;6472;52.328;13.070;2024-01-16T05:04:38;-2.50;99.90
12815;DHT22;6472;52.328;13.070;2024-01-16T05:07:06;-2.50;99.90
12815;DHT22;6472;52.328;13.070;2024-01-16T05:09:34;-2.50;99.90
12815;DHT22;6472;52.328;13.070;2024-01-16T05:12:02;-2.50;99.90
12815;DHT22;6472;52.328;13.070;2024-01-16T05:14:31;-2.60;99.90
12815;DHT22;6472;52.328;13.070;2024-01-16T05:17:00;-2.50;99.90
12815;DHT22;6472;52.328;13.070;2024-01-16T05:19:29;-2.50;99.90
12815;DHT22;6472;52.328;13.070;2024-01-16T05:21:57;-2.70;99.90
12815;DHT22;6472;52.328;13.070;2024-01-16T05:24:25;-2.80;99.90
12815;DHT22;6472;52.328;13.070;2024-01-16T05:26:53;-2.90;99.90
12815;DHT22;6472;52.328;13.070;2024-01-16T05:29:21;-3.00;99.90
12815;DHT22;6472;52.328;13.070;2024-01-16T05:31:49;-3.20;99.90
12815;DHT22;6472;52.328;13.070;2024-01-16T05:34:18;-3.20;99.90
12815;DHT22;6472;52.328;13.070;2024-01-16T05:36:46;-3.20;99.90
12815;DHT22;6472;52.328;13.070;2024-01-16T05:39:14;-3.20;99.90
12815;DHT22;6472;52.328;13.070;2024-01-16T05:41:43;-3.10;99.90
12815;DHT22;6472;52.328;13.070;2024-01-16T05:44:11;-3.00;99.90
12815;DHT22;6472;52.328;13.070;2024-01-16T05:46:39;-2.90;99.90
12815;DHT22;6472;52.328;13.070;2024-01-16T05:49:07;-2.80;99.90
12815;DHT22;6472;52.328;13.070;2024-01-16T05:51:37;-2.50;99.90
12815;DHT22;6472;52.328;13.070;2024-01-16T05:54:05;-2.30;99.90
12815;DHT22;6472;52.328;13.070;2024-01-16T05:56:33;-2.30;99.90
12815;DHT22;6472;52.328;13.070;2024-01-16T05:59:01;-2.20;99.90
12815;DHT22;6472;52.328;13.070;2024-01-16T06:01:29;-2.10;99.90
12815;DHT22;6472;52.328;13.070;2024-01-16T06:03:57;-1.90;99.90
12815;DHT22;6472;52.328;13.070;2024-01-16T06:06:25;-1.80;99.90
12815;DHT22;6472;52.328;13.070;2024-01-16T06:08:55;-1.80;99.90
12815;DHT22;6472;52.328;13.070;2024-01-16T06:11:30;-1.70;99.90
12815;DHT22;6472;52.328;13.070;2024-01-16T06:13:58;-1.80;99.90
12815;DHT22;6472;52.328;13.070;2024-01-16T06:16:26;-1.70;99.90
12815;DHT22;6472;52.328;13.070;2024-01-16T06:18:56;-1.60;99.90
12815;DHT22;6472;52.328;13.070;2024-01-16T06:21:24;-1.60;99.90
12815;DHT22;6472;52.328;13.070;2024-01-16T06:23:54;-1.60;99.90
12815;DHT22;6472;52.328;13.070;2024-01-16T06:26:22;-1.50;99.90
12815;DHT22;6472;52.328;13.070;2024-01-16T06:28:50;-1.50;99.90
12815;DHT22;6472;52.328;13.070;2024-01-16T06:31:18;-1.50;99.90
12815;DHT22;6472;52.328;13.070;2024-01-16T06:33:46;-1.40;99.90
12815;DHT22;6472;52.328;13.070;2024-01-16T06:36:14;-1.40;99.90
12815;DHT22;6472;52.328;13.070;2024-01-16T06:38:42;-1.50;99.90
12815;DHT22;6472;52.328;13.070;2024-01-16T06:41:12;-1.40;99.90
12815;DHT22;6472;52.328;13.070;2024-01-16T06:43:40;-1.40;99.90
12815;DHT22;6472;52.328;13.070;2024-01-16T06:46:08;-1.50;99.90
12815;DHT22;6472;52.328;13.070;2024-01-16T06:48:36;-1.50;99.90
12815;DHT22;6472;52.328;13.070;2024-01-16T06:51:05;-1.50;99.90
12815;DHT22;6472;52.328;13.070;2024-01-16T06:53:34;-1.60;99.90
12815;DHT22;6472;52.328;13.070;2024-01-16T06:56:02;-1.60;99.90
12815;DHT22;6472;52.328;13.070;2024-01-16T06:58:32;-1.60;99.90
12815;DHT22;6472;52.328;13.070;2024-01-16T07:01:00;-1.70;99.90
12815;DHT22;6472;52.328;13.070;2024-01-16T07:03:28;-1.70;99.90
12815;DHT22;6472;52.328;13.070;2024-01-16T07:05:57;-1.50;99.90
12815;DHT22;6472;52.328;13.070;2024-01-16T07:08:25;-1.50;99.90
12815;DHT22;6472;52.328;13.070;2024-01-16T07:10:53;-1.40;99.90
12815;DHT22;6472;52.328;13.070;2024-01-16T07:13:21;-1.40;99.90
12815;DHT22;6472;52.328;13.070;2024-01-16T07:15:50;-1.40;99.90
12815;DHT22;6472;52.328;13.070;2024-01-16T07:18:18;-1.40;99.90
12815;DHT22;6472;52.328;13.070;2024-01-16T07:20:47;-1.40;99.90
12815;DHT22;6472;52.328;13.070;2024-01-16T07:23:14;-1.30;99.90
12815;DHT22;6472;52.328;13.070;2024-01-16T07:25:43;-1.30;99.90
12815;DHT22;6472;52.328;13.070;2024-01-16T07:28:11;-1.20;99.90
12815;DHT22;6472;52.328;13.070;2024-01-16T07:30:39;-1.20;99.90
12815;DHT22;6472;52.328;13.070;2024-01-16T07:33:09;-1.20;99.90
12815;DHT22;6472;52.328;13.070;2024-01-16T07:35:38;-1.10;99.90
12815;DHT22;6472;52.328;13.070;2024-01-16T07:38:07;-1.10;99.90
12815;DHT22;6472;52.328;13.070;2024-01-16T07:40:35;-1.10;99.90
12815;DHT22;6472;52.328;13.070;2024-01-16T07:43:03;-1.10;99.90
12815;DHT22;6472;52.328;13.070;2024-01-16T07:45:32;-1.10;99.90
12815;DHT22;6472;52.328;13.070;2024-01-16T07:48:00;-1.00;99.90
12815;DHT22;6472;52.328;13.070;2024-01-16T07:50:30;-1.10;99.90
12815;DHT22;6472;52.328;13.070;2024-01-16T07:52:58;-0.90;99.90
12815;DHT22;6472;52.328;13.070;2024-01-16T07:55:26;-0.90;99.90
12815;DHT22;6472;52.328;13.070;2024-01-16T07:57:54;-0.90;99.90
12815;DHT22;6472;52.328;13.070;2024-01-16T08:00:22;-0.80;99.90
12815;DHT22;6472;52.328;13.070;2024-01-16T08:02:50;-0.60;99.90
12815;DHT22;6472;52.328;13.070;2024-01-16T08:05:18;-0.50;99.90
12815;DHT22;6472;52.328;13.070;2024-01-16T08:07:50;-0.40;99.90
12815;DHT22;6472;52.328;13.070;2024-01-16T08:10:17;-0.40;99.90
12815;DHT22;6472;52.328;13.070;2024-01-16T08:12:45;-0.40;99.90
12815;DHT22;6472;52.328;13.070;2024-01-16T08:15:14;-0.40;99.90
12815;DHT22;6472;52.328;13.070;2024-01-16T08:17:41;-0.40;99.90
12815;DHT22;6472;52.328;13.070;2024-01-16T08:20:11;-0.30;99.90
12815;DHT22;6472;52.328;13.070;2024-01-16T08:22:39;-0.20;99.90
12815;DHT22;6472;52.328;13.070;2024-01-16T08:25:09;-0.20;99.90
12815;DHT22;6472;52.328;13.070;2024-01-16T08:27:37;-0.10;99.90
12815;DHT22;6472;52.328;13.070;2024-01-16T08:30:06;-0.10;99.90
12815;DHT22;6472;52.328;13.070;2024-01-16T08:32:35;-0.20;99.90
12815;DHT22;6472;52.328;13.070;2024-01-16T08:35:04;-0.10;99.90
12815;DHT22;6472;52.328;13.070;2024-01-16T08:37:33;0.00;99.90
12815;DHT22;6472;52.328;13.070;2024-01-16T08:40:01;0.00;99.90
12815;DHT22;6472;52.328;13.070;2024-01-16T08:42:31;0.10;99.90
12815;DHT22;6472;52.328;13.070;2024-01-16T08:44:59;0.20;99.90
12815;DHT22;6472;52.328;13.070;2024-01-16T08:47:27;0.20;99.90
12815;DHT22;6472;52.328;13.070;2024-01-16T08:49:56;0.20;99.90
12815;DHT22;6472;52.328;13.070;2024-01-16T08:52:23;0.20;99.90
12815;DHT22;6472;52.328;13.070;2024-01-16T08:54:52;0.30;99.90
12815;DHT22;6472;52.328;13.070;2024-01-16T08:57:20;0.40;99.90
12815;DHT22;6472;52.328;13.070;2024-01-16T08:59:53;0.50;99.90
12815;DHT22;6472;52.328;13.070;2024-01-16T09:02:21;0.50;99.90
12815;DHT22;6472;52.328;13.070;2024-01-16T09:04:49;0.60;99.90
12815;DHT22;6472;52.328;13.070;2024-01-16T09:07:18;0.70;99.90
12815;DHT22;6472;52.328;13.070;2024-01-16T09:09:46;0.80;99.90
12815;DHT22;6472;52.328;13.070;2024-01-16T09:12:15;0.90;99.90
12815;DHT22;6472;52.328;13.070;2024-01-16T09:14:43;1.00;99.90
12815;DHT22;6472;52.328;13.070;2024-01-16T09:17:12;1.10;99.90
12815;DHT22;6472;52.328;13.070;2024-01-16T09:19:40;1.10;99.90
12815;DHT22;6472;52.328;13.070;2024-01-16T09:22:08;1.10;99.90
12815;DHT22;6472;52.328;13.070;2024-01-16T09:24:36;1.10;99.90
12815;DHT22;6472;52.328;13.070;2024-01-16T09:27:04;1.10;99.90
12815;DHT22;6472;52.328;13.070;2024-01-16T09:29:33;1.10;99.90
12815;DHT22;6472;52.328;13.070;2024-01-16T09:32:01;1.20;99.90
12815;DHT22;6472;52.328;13.070;2024-01-16T09:34:31;1.20;99.90
12815;DHT22;6472;52.328;13.070;2024-01-16T09:36:59;1.30;99.90
12815;DHT22;6472;52.328;13.070;2024-01-16T09:39:29;1.30;99.90
12815;DHT22;6472;52.328;13.070;2024-01-16T09:41:59;1.20;99.90
12815;DHT22;6472;52.328;13.070;2024-01-16T09:44:28;1.10;99.90
12815;DHT22;6472;52.328;13.070;2024-01-16T09:46:58;1.10;99.90
12815;DHT22;6472;52.328;13.070;2024-01-16T09:49:27;1.10;99.90
12815;DHT22;6472;52.328;13.070;2024-01-16T09:51:58;1.20;99.90
12815;DHT22;6472;52.328;13.070;2024-01-16T09:54:28;1.20;99.90
12815;DHT22;6472;52.328;13.070;2024-01-16T09:56:58;1.30;99.90
12815;DHT22;6472;52.328;13.070;2024-01-16T09:59:29;1.40;99.90
12815;DHT22;6472;52.328;13.070;2024-01-16T10:01:57;1.40;99.90
12815;DHT22;6472;52.328;13.070;2024-01-16T10:04:27;1.50;99.90
12815;DHT22;6472;52.328;13.070;2024-01-16T10:06:58;1.30;99.90
12815;DHT22;6472;52.328;13.070;2024-01-16T10:09:26;1.40;99.90
12815;DHT22;6472;52.328;13.070;2024-01-16T10:11:54;1.30;99.90
12815;DHT22;6472;52.328;13.070;2024-01-16T10:14:24;1.20;99.90
12815;DHT22;6472;52.328;13.070;2024-01-16T10:16:56;1.20;99.90
12815;DHT22;6472;52.328;13.070;2024-01-16T10:19:26;1.20;99.90
12815;DHT22;6472;52.328;13.070;2024-01-16T10:22:12;1.10;99.90
12815;DHT22;6472;52.328;13.070;2024-01-16T10:24:41;1.00;99.90
12815;DHT22;6472;52.328;13.070;2024-01-16T10:27:09;1.10;99.90
12815;DHT22;6472;52.328;13.070;2024-01-16T10:29:37;1.20;99.90
12815;DHT22;6472;52.328;13.070;2024-01-16T10:32:27;1.30;99.90
12815;DHT22;6472;52.328;13.070;2024-01-16T10:35:04;1.30;99.90
12815;DHT22;6472;52.328;13.070;2024-01-16T10:37:42;1.40;99.90
12815;DHT22;6472;52.328;13.070;2024-01-16T10:40:14;1.40;99.90
12815;DHT22;6472;52.328;13.070;2024-01-16T10:42:42;1.50;99.90
12815;DHT22;6472;52.328;13.070;2024-01-16T10:45:17;1.60;99.90
12815;DHT22;6472;52.328;13.070;2024-01-16T10:47:46;1.50;99.90
12815;DHT22;6472;52.328;13.070;2024-01-16T10:50:15;1.40;99.90
12815;DHT22;6472;52.328;13.070;2024-01-16T10:52:47;1.50;99.90
12815;DHT22;6472;52.328;13.070;2024-01-16T10:55:22;1.60;99.90
12815;DHT22;6472;52.328;13.070;2024-01-16T10:57:50;1.50;99.90
12815;DHT22;6472;52.328;13.070;2024-01-16T11:00:19;1.50;99.90
12815;DHT22;6472;52.328;13.070;2024-01-16T11:02:51;1.40;99.90
12815;DHT22;6472;52.328;13.070;2024-01-16T11:05:22;1.40;99.90
12815;DHT22;6472;52.328;13.070;2024-01-16T11:07:55;1.50;99.90
12815;DHT22;6472;52.328;13.070;2024-01-16T11:10:24;1.50;99.90
12815;DHT22;6472;52.328;13.070;2024-01-16T11:12:56;1.70;99.90
12815;DHT22;6472;52.328;13.070;2024-01-16T11:15:28;1.80;99.90
12815;DHT22;6472;52.328;13.070;2024-01-16T11:17:56;1.80;99.90
12815;DHT22;6472;52.328;13.070;2024-01-16T11:20:25;1.90;99.90
12815;DHT22;6472;52.328;13.070;2024-01-16T11:23:15;1.90;99.90
12815;DHT22;6472;52.328;13.070;2024-01-16T11:25:44;2.00;99.90
12815;DHT22;6472;52.328;13.070;2024-01-16T11:28:13;2.00;99.90
12815;DHT22;6472;52.328;13.070;2024-01-16T11:30:43;2.10;99.90
12815;DHT22;6472;52.328;13.070;2024-01-16T11:33:43;2.20;99.90
12815;DHT22;6472;52.328;13.070;2024-01-16T11:36:42;2.40;99.90
12815;DHT22;6472;52.328;13.070;2024-01-16T11:39:17;2.50;99.90
12815;DHT22;6472;52.328;13.070;2024-01-16T11:41:49;2.50;99.90
12815;DHT22;6472;52.328;13.070;2024-01-16T11:44:41;2.50;99.90
12815;DHT22;6472;52.328;13.070;2024-01-16T11:47:15;2.40;99.90
12815;DHT22;6472;52.328;13.070;2024-01-16T11:49:44;2.30;99.90
12815;DHT22;6472;52.328;13.070;2024-01-16T11:52:12;2.30;99.90
12815;DHT22;6472;52.328;13.070;2024-01-16T11:54:42;2.30;99.90
12815;DHT22;6472;52.328;13.070;2024-01-16T11:57:36;2.30;99.90
12815;DHT22;6472;52.328;13.070;2024-01-16T12:00:07;2.30;99.90
12815;DHT22;6472;52.328;13.070;2024-01-16T12:02:51;2.20;99.90
12815;DHT22;6472;52.328;13.070;2024-01-16T12:05:20;2.30;99.90
12815;DHT22;6472;52.328;13.070;2024-01-16T12:07:50;2.20;99.90
12815;DHT22;6472;52.328;13.070;2024-01-16T12:10:23;2.00;99.90
12815;DHT22;6472;52.328;13.070;2024-01-16T12:12:57;2.00;99.90
12815;DHT22;6472;52.328;13.070;2024-01-16T12:15:31;1.90;99.90
12815;DHT22;6472;52.328;13.070;2024-01-16T12:18:00;1.70;99.90
12815;DHT22;6472;52.328;13.070;2024-01-16T12:20:31;1.70;99.90
12815;DHT22;6472;52.328;13.070;2024-01-16T12:23:00;1.80;99.90
12815;DHT22;6472;52.328;13.070;2024-01-16T12:25:31;1.70;99.90
12815;DHT22;6472;52.328;13.070;2024-01-16T12:28:20;1.80;99.90
12815;DHT22;6472;52.328;13.070;2024-01-16T12:30:59;1.70;99.90
12815;DHT22;6472;52.328;13.070;2024-01-16T12:33:30;1.60;99.90
12815;DHT22;6472;52.328;13.070;2024-01-16T12:36:03;1.70;99.90
12815;DHT22;6472;52.328;13.070;2024-01-16T12:38:32;1.50;99.90
12815;DHT22;6472;52.328;13.070;2024-01-16T12:41:05;1.60;99.90
12815;DHT22;6472;52.328;13.070;2024-01-16T12:43:36;1.50;99.90
12815;DHT22;6472;52.328;13.070;2024-01-16T12:46:05;1.60;99.90
12815;DHT22;6472;52.328;13.070;2024-01-16T12:48:34;1.50;99.90
12815;DHT22;6472;52.328;13.070;2024-01-16T12:51:02;1.50;99.90
12815;DHT22;6472;52.328;13.070;2024-01-16T12:53:32;1.40;99.90
12815;DHT22;6472;52.328;13.070;2024-01-16T12:56:05;1.40;99.90
12815;DHT22;6472;52.328;13.070;2024-01-16T12:58:35;1.20;99.90
12815;DHT22;6472;52.328;13.070;2024-01-16T13:01:22;1.30;99.90
12815;DHT22;6472;52.328;13.070;2024-01-16T13:04:05;1.30;99.90
12815;DHT22;6472;52.328;13.070;2024-01-16T13:06:34;1.30;99.90
12815;DHT22;6472;52.328;13.070;2024-01-16T13:09:06;1.30;99.90
12815;DHT22;6472;52.328;13.070;2024-01-16T13:11:50;1.20;99.90
12815;DHT22;6472;52.328;13.070;2024-01-16T13:14:20;1.30;99.90
12815;DHT22;6472;52.328;13.070;2024-01-16T13:16:49;1.20;99.90
12815;DHT22;6472;52.328;13.070;2024-01-16T13:19:18;1.10;99.90
12815;DHT22;6472;52.328;13.070;2024-01-16T13:21:47;1.10;99.90
12815;DHT22;6472;52.328;13.070;2024-01-16T13:24:15;1.10;99.90
12815;DHT22;6472;52.328;13.070;2024-01-16T13:26:50;1.10;99.90
12815;DHT22;6472;52.328;13.070;2024-01-16T13:29:50;1.00;99.90
12815;DHT22;6472;52.328;13.070;2024-01-16T13:32:19;1.10;99.90
12815;DHT22;6472;52.328;13.070;2024-01-16T13:34:47;1.20;99.90
12815;DHT22;6472;52.328;13.070;2024-01-16T13:37:20;1.30;99.90
12815;DHT22;6472;52.328;13.070;2024-01-16T13:39:49;1.20;99.90
12815;DHT22;6472;52.328;13.070;2024-01-16T13:42:19;1.30;99.90
12815;DHT22;6472;52.328;13.070;2024-01-16T13:44:47;1.20;99.90
12815;DHT22;6472;52.328;13.070;2024-01-16T13:47:15;1.00;99.90
12815;DHT22;6472;52.328;13.070;2024-01-16T13:49:49;1.00;99.90
12815;DHT22;6472;52.328;13.070;2024-01-16T13:52:17;1.00;99.90
12815;DHT22;6472;52.328;13.070;2024-01-16T13:54:49;1.00;99.90
12815;DHT22;6472;52.328;13.070;2024-01-16T13:57:18;1.00;99.90
12815;DHT22;6472;52.328;13.070;2024-01-16T13:59:46;0.80;99.90
12815;DHT22;6472;52.328;13.070;2024-01-16T14:02:14;0.70;99.90
12815;DHT22;6472;52.328;13.070;2024-01-16T14:04:42;0.70;99.90
12815;DHT22;6472;52.328;13.070;2024-01-16T14:07:10;0.70;99.90
12815;DHT22;6472;52.328;13.070;2024-01-16T14:09:40;0.60;99.90
12815;DHT22;6472;52.328;13.070;2024-01-16T14:12:12;0.50;99.90
12815;DHT22;6472;52.328;13.070;2024-01-16T14:14:42;0.60;99.90
12815;DHT22;6472;52.328;13.070;2024-01-16T14:17:10;0.70;99.90
12815;DHT22;6472;52.328;13.070;2024-01-16T14:19:38;0.70;99.90
12815;DHT22;6472;52.328;13.070;2024-01-16T14:22:07;0.70;99.90
12815;DHT22;6472;52.328;13.070;2024-01-16T14:24:35;0.80;99.90
12815;DHT22;6472;52.328;13.070;2024-01-16T14:27:05;0.90;99.90
12815;DHT22;6472;52.328;13.070;2024-01-16T14:29:34;0.90;99.90
12815;DHT22;6472;52.328;13.070;2024-01-16T14:32:05;0.90;99.90
12815;DHT22;6472;52.328;13.070;2024-01-16T14:34:33;0.90;99.90
12815;DHT22;6472;52.328;13.070;2024-01-16T14:37:01;0.80;99.90
12815;DHT22;6472;52.328;13.070;2024-01-16T14:39:29;0.80;99.90
12815;DHT22;6472;52.328;13.070;2024-01-16T14:41:58;0.70;99.90
12815;DHT22;6472;52.328;13.070;2024-01-16T14:44:26;0.60;99.90
12815;DHT22;6472;52.328;13.070;2024-01-16T14:46:54;0.60;99.90
12815;DHT22;6472;52.328;13.070;2024-01-16T14:49:24;0.60;99.90
12815;DHT22;6472;52.328;13.070;2024-01-16T14:51:58;0.70;99.90
12815;DHT22;6472;52.328;13.070;2024-01-16T14:54:28;0.70;99.90
12815;DHT22;6472;52.328;13.070;2024-01-16T14:56:56;0.70;99.90
12815;DHT22;6472;52.328;13.070;2024-01-16T14:59:24;0.60;99.90
12815;DHT22;6472;52.328;13.070;2024-01-16T15:01:52;0.50;99.90
12815;DHT22;6472;52.328;13.070;2024-01-16T15:04:21;0.60;99.90
12815;DHT22;6472;52.328;13.070;2024-01-16T15:06:51;0.60;99.90
12815;DHT22;6472;52.328;13.070;2024-01-16T15:09:21;0.60;99.90
12815;DHT22;6472;52.328;13.070;2024-01-16T15:11:49;0.60;99.90
12815;DHT22;6472;52.328;13.070;2024-01-16T15:14:17;0.50;99.90
12815;DHT22;6472;52.328;13.070;2024-01-16T15:16:46;0.50;99.90
12815;DHT22;6472;52.328;13.070;2024-01-16T15:19:14;0.50;99.90
12815;DHT22;6472;52.328;13.070;2024-01-16T15:21:43;0.40;99.90
12815;DHT22;6472;52.328;13.070;2024-01-16T15:24:13;0.50;99.90
12815;DHT22;6472;52.328;13.070;2024-01-16T15:26:46;0.40;99.90
12815;DHT22;6472;52.328;13.070;2024-01-16T15:29:14;0.30;99.90
12815;DHT22;6472;52.328;13.070;2024-01-16T15:31:42;0.10;99.90
12815;DHT22;6472;52.328;13.070;2024-01-16T15:34:10;0.10;99.90
12815;DHT22;6472;52.328;13.070;2024-01-16T15:36:42;0.10;99.90
12815;DHT22;6472;52.328;13.070;2024-01-16T15:39:12;0.00;99.90
12815;DHT22;6472;52.328;13.070;2024-01-16T15:41:43;0.00;99.90
12815;DHT22;6472;52.328;13.070;2024-01-16T15:44:11;-0.10;99.90
12815;DHT22;6472;52.328;13.070;2024-01-16T15:46:56;0.00;99.90
12815;DHT22;6472;52.328;13.070;2024-01-16T15:49:24;0.10;99.90
12815;DHT22;6472;52.328;13.070;2024-01-16T15:51:53;0.10;99.90
12815;DHT22;6472;52.328;13.070;2024-01-16T15:54:23;0.10;99.90
12815;DHT22;6472;52.328;13.070;2024-01-16T15:56:51;0.20;99.90